Time;durP1;ratioP1;P1;durP2;ratioP2;P2;SDS_P1;SDS_P2;PMS_P1;PMS_P2;Temp;Humidity;BMP_temperature;BMP_pressure;BME280_temperature;BME280_humidity;BME280_pressure;Samples;Min_cycle;Max_cycle;Signal;HPM_P1;HPM_P2
2022/10/14 00:00:26;;;;;;;90.10;53.52;;;;;;;8.57;76.77;100502.64;2095102;84;27661;-71
2022/10/14 00:03:29;;;;;;;88.27;52.88;;;;;;;8.55;76.74;100503.16;2095151;84;27848;-70
2022/10/14 00:06:33;;;;;;;87.08;51.90;;;;;;;8.57;77.12;100502.64;2089325;85;31617;-70
2022/10/14 00:09:34;;;;;;;83.67;47.33;;;;;;;8.59;77.29;100510.13;2090130;85;32982;-70
2022/10/14 00:12:36;;;;;;;81.08;48.02;;;;;;;8.59;77.53;100503.45;2095057;84;30894;-71
2022/10/14 00:15:41;;;;;;;81.20;47.38;;;;;;;8.60;77.40;100503.87;2091138;84;27793;-71
2022/10/14 00:18:42;;;;;;;78.05;47.43;;;;;;;8.59;77.49;100501.67;2083548;83;28690;-65
2022/10/14 00:21:44;;;;;;;82.22;48.28;;;;;;;8.58;77.44;100510.61;2127504;83;31235;-65
2022/10/14 00:24:46;;;;;;;83.80;48.83;;;;;;;8.57;77.42;100510.20;2132858;83;33087;-70
2022/10/14 00:27:47;;;;;;;71.00;44.45;;;;;;;8.56;77.33;100506.23;2128701;83;29704;-70
2022/10/14 00:30:57;;;;;;;78.35;45.98;;;;;;;8.57;77.81;100494.19;2128369;83;27702;-70
2022/10/14 00:33:59;;;;;;;78.33;46.53;;;;;;;8.58;77.73;100497.71;2130455;83;28653;-65
2022/10/14 00:37:00;;;;;;;78.07;43.83;;;;;;;8.57;77.71;100500.86;2125445;83;31452;-69
2022/10/14 00:40:04;;;;;;;73.57;46.05;;;;;;;8.59;77.76;100496.78;2127537;83;33336;-70
2022/10/14 00:43:12;;;;;;;76.65;45.50;;;;;;;8.60;78.12;100498.08;2128686;83;29366;-69
2022/10/14 00:46:13;;;;;;;81.67;47.00;;;;;;;8.62;78.05;100504.20;2128055;83;27689;-69
2022/10/14 00:49:27;;;;;;;80.92;48.42;;;;;;;8.66;78.23;100491.63;2086007;84;28709;-69
2022/10/14 00:52:29;;;;;;;75.32;44.70;;;;;;;8.70;78.71;100497.23;2054527;86;32001;-70
2022/10/14 00:55:31;;;;;;;70.85;43.80;;;;;;;8.75;78.71;100489.92;2010696;87;35841;-70
2022/10/14 00:58:33;;;;;;;78.20;45.70;;;;;;;8.79;78.63;100490.66;1988336;88;29361;-70
2022/10/14 01:01:34;;;;;;;78.70;44.50;;;;;;;8.81;78.76;100486.13;2024977;86;27940;-71
2022/10/14 01:04:38;;;;;;;71.72;43.52;;;;;;;8.84;78.66;100484.69;2055154;85;29151;-71
2022/10/14 01:08:00;;;;;;;72.27;43.60;;;;;;;8.86;78.67;100480.16;2053063;86;30808;-70
2022/10/14 01:11:22;;;;;;;70.78;43.63;;;;;;;8.87;78.71;100478.34;2026874;85;34169;-69
2022/10/14 01:14:49;;;;;;;70.15;43.35;;;;;;;8.87;78.77;100468.54;2060613;86;29730;-65
2022/10/14 01:18:02;;;;;;;73.35;43.23;;;;;;;8.87;78.80;100468.98;2037986;84;27704;-68
2022/10/14 01:21:21;;;;;;;72.03;42.73;;;;;;;8.84;78.76;100467.31;2123431;83;29281;-71
2022/10/14 01:24:45;;;;;;;68.20;41.92;;;;;;;8.83;78.55;100466.91;2124690;83;31056;-64
2022/10/14 01:28:07;;;;;;;80.80;47.55;;;;;;;8.80;78.64;100459.90;2130759;83;33845;-65
2022/10/14 01:31:14;;;;;;;73.55;43.35;;;;;;;8.76;78.78;100460.95;2120194;83;29199;-68
2022/10/14 01:34:20;;;;;;;78.75;46.50;;;;;;;8.72;78.61;100452.64;2116021;83;27681;-65
2022/10/14 01:37:25;;;;;;;79.90;48.13;;;;;;;8.68;78.80;100448.83;2090619;84;29909;-63
2022/10/14 01:40:48;;;;;;;72.87;43.05;;;;;;;8.66;78.85;100459.58;2064211;85;31083;-64
2022/10/14 01:43:51;;;;;;;78.40;45.25;;;;;;;8.63;78.94;100459.21;2093845;84;33023;-63
2022/10/14 01:46:54;;;;;;;71.33;43.52;;;;;;;8.61;78.79;100460.21;2091291;84;29412;-65
2022/10/14 01:50:10;;;;;;;72.25;43.68;;;;;;;8.58;78.68;100454.98;2124558;83;27849;-63
2022/10/14 01:53:19;;;;;;;65.10;41.77;;;;;;;8.53;78.54;100444.48;2127664;83;28712;-66
2022/10/14 01:56:21;;;;;;;70.55;40.88;;;;;;;8.48;78.63;100442.45;2102548;83;30492;-69
2022/10/14 01:59:23;;;;;;;69.15;41.65;;;;;;;8.43;78.47;100441.75;2132357;83;34120;-69
2022/10/14 02:02:25;;;;;;;65.28;39.38;;;;;;;8.36;78.43;100448.64;2127101;83;30519;-70
2022/10/14 02:05:52;;;;;;;66.42;40.17;;;;;;;8.34;78.45;100452.31;2128247;83;27850;-70
2022/10/14 02:09:08;;;;;;;69.97;40.63;;;;;;;8.29;78.36;100448.46;2117226;83;29888;-70
2022/10/14 02:12:24;;;;;;;64.97;41.35;;;;;;;8.25;78.59;100447.30;2127488;83;31389;-72
2022/10/14 02:15:43;;;;;;;75.00;42.10;;;;;;;8.23;78.71;100456.72;2130591;83;34168;-71
2022/10/14 02:19:04;;;;;;;68.00;42.20;;;;;;;8.21;78.71;100452.75;2130581;83;30458;-70
2022/10/14 02:22:25;;;;;;;60.80;38.67;;;;;;;8.18;78.60;100444.89;2125346;83;27861;-72
2022/10/14 02:25:33;;;;;;;62.45;40.08;;;;;;;8.14;78.57;100451.26;2134893;83;29548;-69
2022/10/14 02:28:35;;;;;;;66.17;39.25;;;;;;;8.12;78.61;100454.44;2132008;83;31049;-69
2022/10/14 02:31:39;;;;;;;70.03;43.13;;;;;;;8.11;78.70;100455.84;2127741;83;33175;-70
2022/10/14 02:34:44;;;;;;;63.63;40.58;;;;;;;8.12;78.94;100458.89;2130217;83;29206;-72
2022/10/14 02:37:48;;;;;;;56.68;31.95;;;;;;;8.13;79.07;100465.53;2130950;83;36680;-73
2022/10/14 02:40:50;;;;;;;50.75;31.25;;;;;;;8.17;79.19;100460.49;2097538;83;29292;-68
2022/10/14 02:43:51;;;;;;;71.67;43.40;;;;;;;8.21;79.32;100454.09;2069647;84;32245;-72
2022/10/14 02:46:55;;;;;;;69.87;42.15;;;;;;;8.24;79.37;100449.12;2092314;84;33333;-72
2022/10/14 02:49:56;;;;;;;70.97;42.43;;;;;;;8.28;79.47;100450.72;2096882;84;29378;-72
2022/10/14 02:52:57;;;;;;;66.90;40.75;;;;;;;8.32;79.46;100451.50;2091735;84;27781;-73
2022/10/14 02:55:59;;;;;;;69.45;39.00;;;;;;;8.33;79.43;100449.23;2095405;84;29065;-72
2022/10/14 02:59:02;;;;;;;70.52;42.23;;;;;;;8.38;79.49;100454.39;2090817;85;31050;-71
2022/10/14 03:02:03;;;;;;;67.05;42.10;;;;;;;8.42;79.53;100449.35;2092431;84;33015;-69
2022/10/14 03:05:06;;;;;;;71.07;41.80;;;;;;;8.46;79.61;100446.95;2086389;84;30406;-69
2022/10/14 03:08:07;;;;;;;72.92;42.33;;;;;;;8.50;79.65;100452.61;2058724;84;27730;-69
2022/10/14 03:11:08;;;;;;;76.25;42.55;;;;;;;8.56;79.67;100450.16;2059583;85;29923;-67
2022/10/14 03:14:10;;;;;;;73.92;43.17;;;;;;;8.59;79.64;100444.27;2128626;83;31067;-72
2022/10/14 03:17:11;;;;;;;74.55;42.75;;;;;;;8.62;79.62;100449.45;2137185;83;33347;-72
2022/10/14 03:20:13;;;;;;;69.32;40.20;;;;;;;8.65;79.54;100443.15;2101908;83;29559;-67
2022/10/14 03:23:14;;;;;;;78.65;44.98;;;;;;;8.65;79.50;100445.34;2125733;83;27833;-72
2022/10/14 03:26:15;;;;;;;64.00;41.98;;;;;;;8.66;79.47;100438.21;2118641;83;29189;-67
2022/10/14 03:29:17;;;;;;;68.72;42.30;;;;;;;8.65;79.45;100433.31;2105636;83;31224;-72
2022/10/14 03:32:18;;;;;;;67.55;40.67;;;;;;;8.62;79.38;100424.09;2123587;83;32999;-70
2022/10/14 03:35:22;;;;;;;69.00;42.83;;;;;;;8.61;79.38;100429.02;2129956;83;29401;-72
2022/10/14 03:38:23;;;;;;;70.97;42.15;;;;;;;8.58;79.46;100433.17;2123563;82;27830;-72
2022/10/14 03:41:25;;;;;;;69.25;43.35;;;;;;;8.53;79.47;100435.59;2061507;85;28813;-69
2022/10/14 03:44:26;;;;;;;76.12;44.25;;;;;;;8.48;79.45;100440.67;2094219;84;31463;-72
2022/10/14 03:47:28;;;;;;;69.40;40.95;;;;;;;8.46;79.47;100437.16;2095204;84;33384;-70
2022/10/14 03:50:29;;;;;;;67.32;42.03;;;;;;;8.44;79.42;100442.16;2090480;85;29721;-73
2022/10/14 03:53:30;;;;;;;66.62;41.28;;;;;;;8.40;79.47;100437.86;2090737;85;27719;-68
2022/10/14 03:56:32;;;;;;;68.80;40.75;;;;;;;8.33;79.48;100441.23;2091132;84;28711;-72
2022/10/14 03:59:33;;;;;;;68.55;41.18;;;;;;;8.29;79.52;100433.78;2090816;84;31049;-71
2022/10/14 04:02:34;;;;;;;74.55;40.45;;;;;;;8.26;79.53;100427.70;2090977;84;33374;-72
2022/10/14 04:05:36;;;;;;;70.52;41.15;;;;;;;8.24;79.73;100430.88;2092025;84;29782;-73
2022/10/14 04:08:37;;;;;;;73.28;40.40;;;;;;;8.20;79.80;100429.66;2098105;83;27661;-68
2022/10/14 04:11:39;;;;;;;71.10;42.43;;;;;;;8.19;79.87;100428.39;2132978;83;29078;-72
2022/10/14 04:14:40;;;;;;;67.95;41.55;;;;;;;8.18;79.94;100427.54;2127480;83;31460;-69
2022/10/14 04:17:43;;;;;;;72.72;41.13;;;;;;;8.18;79.91;100425.32;2128094;83;34180;-72
2022/10/14 04:20:44;;;;;;;66.72;39.70;;;;;;;8.16;79.92;100428.06;2131355;83;29395;-69
2022/10/14 04:23:46;;;;;;;73.50;41.90;;;;;;;8.13;79.96;100428.17;2127838;83;27786;-73
2022/10/14 04:26:51;;;;;;;69.87;41.20;;;;;;;8.13;80.07;100428.17;2139918;83;29699;-66
2022/10/14 04:29:52;;;;;;;;;;;;;;;8.11;80.08;100418.48;2132886;83;32365;-64
2022/10/14 04:32:53;;;;;;;63.70;39.33;;;;;;;8.08;80.20;100420.79;2128051;83;32434;-68
2022/10/14 04:36:04;;;;;;;64.90;38.55;;;;;;;8.08;80.20;100426.13;2127966;83;29339;-66
2022/10/14 04:39:06;;;;;;;71.15;39.58;;;;;;;8.08;80.13;100422.12;2109752;83;27626;-71
2022/10/14 04:42:07;;;;;;;67.92;38.80;;;;;;;8.09;80.20;100427.02;2091977;84;29597;-65
2022/10/14 04:45:09;;;;;;;70.83;40.12;;;;;;;8.11;80.21;100427.83;2090341;85;31437;-66
2022/10/14 04:48:11;;;;;;;61.30;39.60;;;;;;;8.12;80.23;100433.09;2092250;84;33463;-67
2022/10/14 04:51:12;;;;;;;63.63;38.15;;;;;;;8.13;80.20;100429.50;2088225;84;31540;-70
2022/10/14 04:54:13;;;;;;;71.53;40.10;;;;;;;8.14;80.20;100419.69;2094482;84;28103;-63
2022/10/14 04:57:16;;;;;;;75.95;41.68;;;;;;;8.16;80.16;100424.06;2088996;85;29887;-71
2022/10/14 05:00:18;;;;;;;93.60;49.70;;;;;;;8.17;80.17;100422.24;2064633;85;30880;-70
2022/10/14 05:03:19;;;;;;;111.35;54.18;;;;;;;8.18;80.24;100424.88;2098149;84;32975;-65
2022/10/14 05:06:20;;;;;;;100.05;50.85;;;;;;;8.19;80.24;100415.05;2090207;85;30514;-64
2022/10/14 05:09:23;;;;;;;77.92;45.85;;;;;;;8.21;80.25;100407.38;2109506;83;27707;-67
2022/10/14 05:12:24;;;;;;;64.80;42.05;;;;;;;8.24;80.34;100406.41;2129902;83;29503;-66
2022/10/14 05:15:26;;;;;;;81.97;43.70;;;;;;;8.26;80.36;100411.23;2125764;83;31523;-64
2022/10/14 05:18:27;;;;;;;74.05;42.67;;;;;;;8.29;80.36;100403.09;2128657;83;33339;-64
2022/10/14 05:21:28;;;;;;;78.57;47.67;;;;;;;8.32;80.42;100403.45;2132103;83;30466;-67
2022/10/14 05:24:42;;;;;;;;;;;;;;;;;;;;;
2022/10/14 05:27:35;;;;;;;96.32;54.45;;;;;;;8.41;80.50;100406.23;2087979;84;28701;-72
2022/10/14 05:30:37;;;;;;;138.35;73.20;;;;;;;8.43;80.55;100407.05;2089606;85;31390;-71
2022/10/14 05:33:38;;;;;;;148.25;77.67;;;;;;;8.45;80.67;100399.37;2095428;84;33009;-70
2022/10/14 05:36:41;;;;;;;99.55;54.23;;;;;;;8.48;80.64;100396.62;2067174;84;27803;-70
2022/10/14 05:39:42;;;;;;;78.17;46.92;;;;;;;8.54;80.71;100395.50;2092977;84;27661;-71
2022/10/14 05:42:44;;;;;;;78.52;43.40;;;;;;;8.58;80.68;100392.23;2090741;85;29570;-70
2022/10/14 05:45:45;;;;;;;72.15;42.27;;;;;;;8.60;80.60;100384.59;2088577;85;31877;-70
2022/10/14 05:48:47;;;;;;;75.60;45.73;;;;;;;8.65;80.62;100377.72;2091885;84;33326;-73
2022/10/14 05:51:48;;;;;;;75.45;44.40;;;;;;;8.71;80.66;100387.28;2093630;84;29692;-71
2022/10/14 05:54:49;;;;;;;62.45;40.45;;;;;;;8.77;80.65;100387.04;2135894;83;27744;-71
2022/10/14 05:58:24;;;;;;;76.05;43.80;;;;;;;8.83;80.65;100388.58;2126386;83;28693;-73
2022/10/14 06:01:44;;;;;;;76.30;44.03;;;;;;;8.87;80.54;100391.52;2035730;85;31307;-71
2022/10/14 06:04:32;;;;;;;76.05;44.08;;;;;;;8.88;80.51;100388.80;2013272;86;27815;-70
2022/10/14 06:07:35;;;;;;;76.80;45.25;;;;;;;8.93;80.49;100392.60;2043887;85;29681;-71
2022/10/14 06:10:36;;;;;;;79.62;43.95;;;;;;;8.99;80.57;100388.36;2038416;85;27936;-71
2022/10/14 06:13:38;;;;;;;72.17;44.40;;;;;;;9.08;80.55;100398.64;2031610;86;29547;-71
2022/10/14 06:16:39;;;;;;;68.05;41.45;;;;;;;9.17;80.53;100393.86;1982569;87;31114;-70
2022/10/14 06:19:40;;;;;;;70.25;42.27;;;;;;;9.22;80.52;100397.19;2039437;86;34121;-68
2022/10/14 06:22:42;;;;;;;70.25;40.63;;;;;;;9.28;80.44;100396.45;2027148;86;30502;-72
2022/10/14 06:25:43;;;;;;;74.70;42.95;;;;;;;9.37;80.42;100396.53;2029179;85;27831;-70
2022/10/14 06:28:45;;;;;;;69.55;40.52;;;;;;;9.46;80.47;100394.41;1991003;88;29130;-71
2022/10/14 06:31:46;;;;;;;70.55;43.50;;;;;;;9.53;80.35;100401.20;2031832;85;33141;-71
2022/10/14 06:34:48;;;;;;;79.62;48.00;;;;;;;9.61;80.39;100400.42;1983122;88;33216;-71
2022/10/14 06:37:49;;;;;;;71.85;44.45;;;;;;;9.71;80.39;100407.09;2012638;86;29339;-72
2022/10/14 06:40:53;;;;;;;71.17;43.40;;;;;;;9.79;80.29;100406.75;2026236;86;28482;-71
2022/10/14 06:43:54;;;;;;;73.17;42.40;;;;;;;9.87;80.20;100403.27;1987768;88;28696;-72
2022/10/14 06:46:55;;;;;;;80.07;50.48;;;;;;;9.94;80.04;100405.20;2013139;87;31425;-71
2022/10/14 06:49:57;;;;;;;68.40;42.78;;;;;;;10.00;80.14;100395.56;1986561;88;33121;-71
2022/10/14 06:52:58;;;;;;;72.00;43.15;;;;;;;10.07;79.97;100394.81;2026003;86;30226;-69
2022/10/14 06:56:03;;;;;;;78.83;47.48;;;;;;;10.13;80.02;100393.66;1985243;88;27814;-71
2022/10/14 06:59:05;;;;;;;75.90;44.03;;;;;;;10.21;79.99;100390.13;2022915;86;28692;-72
2022/10/14 07:02:07;;;;;;;72.25;41.83;;;;;;;10.30;80.00;100394.19;2021972;86;31958;-69
2022/10/14 07:05:09;;;;;;;70.67;41.68;;;;;;;10.36;79.72;100407.30;2026201;85;33375;-71
2022/10/14 07:08:10;;;;;;;60.03;39.60;;;;;;;10.41;79.67;100403.09;2022598;86;29387;-72
2022/10/14 07:11:12;;;;;;;69.53;40.25;;;;;;;10.47;79.62;100407.69;2029189;86;27706;-72
2022/10/14 07:14:13;;;;;;;74.87;47.62;;;;;;;10.50;79.47;100405.35;2051590;86;29937;-70
2022/10/14 07:17:17;;;;;;;83.05;49.93;;;;;;;10.55;79.46;100402.45;2077284;85;31630;-70
2022/10/14 07:20:18;;;;;;;84.25;51.60;;;;;;;10.59;79.38;100396.01;2075640;85;34172;-71
2022/10/14 07:23:19;;;;;;;86.72;48.98;;;;;;;10.66;79.43;100392.07;2071257;83;29744;-72
2022/10/14 07:26:21;;;;;;;76.62;45.92;;;;;;;10.72;79.31;100391.78;2084807;84;27861;-69
2022/10/14 07:29:23;;;;;;;76.87;45.38;;;;;;;10.87;79.57;100392.82;2057441;84;29161;-67
2022/10/14 07:32:24;;;;;;;67.20;41.55;;;;;;;11.09;79.64;100389.93;2113406;83;30870;-70
2022/10/14 07:35:26;;;;;;;73.30;44.90;;;;;;;11.34;79.55;100388.70;2122015;83;33766;-71
2022/10/14 07:38:28;;;;;;;66.02;39.85;;;;;;;11.60;79.62;100395.00;2123826;83;29716;-71
2022/10/14 07:41:29;;;;;;;69.32;40.83;;;;;;;11.88;79.40;100399.77;2121715;83;27696;-72
2022/10/14 07:44:30;;;;;;;68.87;39.88;;;;;;;12.14;79.22;100402.88;2097719;83;28667;-65
2022/10/14 07:47:32;;;;;;;61.40;41.37;;;;;;;12.43;79.03;100396.37;2097541;84;31455;-69
2022/10/14 07:50:33;;;;;;;67.72;41.45;;;;;;;12.64;78.54;100404.19;2098568;84;33390;-70
2022/10/14 07:53:36;;;;;;;64.32;40.20;;;;;;;12.95;78.74;100402.42;2062345;84;28707;-70
2022/10/14 07:56:40;;;;;;;67.32;40.90;;;;;;;13.29;78.34;100398.63;2045922;86;27766;-71
2022/10/14 07:59:41;;;;;;;64.20;41.00;;;;;;;13.56;78.02;100398.45;2050890;86;29606;-71
2022/10/14 08:02:43;;;;;;;61.70;38.13;;;;;;;13.85;77.75;100396.64;2044141;86;32100;-71
2022/10/14 08:05:46;;;;;;;55.63;37.23;;;;;;;14.16;77.65;100400.10;2051327;86;33109;-71
2022/10/14 08:08:48;;;;;;;62.05;37.78;;;;;;;14.50;77.30;100405.19;2053628;86;30123;-70
2022/10/14 08:11:50;;;;;;;58.85;36.73;;;;;;;14.78;76.77;100400.25;2052937;86;27597;-71
2022/10/14 08:14:56;;;;;;;57.30;37.15;;;;;;;14.96;76.26;100399.50;2053875;85;29900;-71
2022/10/14 08:17:57;;;;;;;61.83;37.50;;;;;;;14.95;75.62;100369.94;2051739;86;31872;-70
2022/10/14 08:20:59;;;;;;;60.38;38.60;;;;;;;15.20;75.31;100392.09;2046710;86;33645;-69
2022/10/14 08:24:03;;;;;;;55.92;36.95;;;;;;;15.32;75.17;100395.30;2082943;84;29383;-72
2022/10/14 08:27:06;;;;;;;62.10;39.70;;;;;;;15.42;74.65;100402.75;2095785;84;27816;-71
2022/10/14 08:30:10;;;;;;;52.95;35.20;;;;;;;15.53;74.63;100396.15;2084297;83;29760;-69
2022/10/14 08:33:13;;;;;;;58.70;37.20;;;;;;;15.63;74.29;100399.08;2092328;84;31038;-71
2022/10/14 08:36:15;;;;;;;58.10;35.75;;;;;;;15.74;73.87;100398.30;2092294;83;33016;-70
2022/10/14 08:39:19;;;;;;;63.70;39.35;;;;;;;15.83;73.47;100394.09;2091198;84;28528;-71
2022/10/14 08:42:53;;;;;;;59.63;39.50;;;;;;;15.91;73.45;100399.37;2086560;84;27622;-72
2022/10/14 08:46:17;;;;;;;56.85;36.03;;;;;;;16.07;73.22;100395.58;2096774;84;29668;-71
2022/10/14 08:50:01;;;;;;;67.53;37.05;;;;;;;16.19;72.87;100393.84;2089681;84;31491;-70
2022/10/14 08:53:20;;;;;;;57.67;36.93;;;;;;;16.35;72.63;100390.41;2074159;84;34381;-71
2022/10/14 08:56:23;;;;;;;61.37;38.48;;;;;;;16.54;72.07;100391.77;2045143;86;30403;-70
2022/10/14 08:59:25;;;;;;;53.20;33.48;;;;;;;16.71;71.77;100382.42;2050393;86;27781;-71
2022/10/14 09:02:49;;;;;;;47.15;33.10;;;;;;;16.97;71.50;100380.98;2052950;86;28679;-72
2022/10/14 09:06:05;;;;;;;47.15;31.48;;;;;;;17.14;71.16;100384.62;2046679;85;31077;-70
2022/10/14 09:09:15;;;;;;;45.05;30.80;;;;;;;17.37;71.33;100378.42;2047561;85;34158;-72
2022/10/14 09:12:27;;;;;;;45.67;28.87;;;;;;;17.46;69.88;100371.81;2038827;86;29498;-67
2022/10/14 09:15:38;;;;;;;42.73;30.25;;;;;;;17.58;70.02;100378.12;2048376;86;27702;-67
2022/10/14 09:18:56;;;;;;;44.15;29.02;;;;;;;17.73;69.79;100381.45;2041005;86;28828;-71
2022/10/14 09:22:19;;;;;;;45.00;30.88;;;;;;;17.82;69.54;100377.67;2051833;84;31515;-70
2022/10/14 09:25:20;;;;;;;42.60;27.62;;;;;;;17.86;68.70;100376.45;1987491;88;33050;-70
2022/10/14 09:28:28;;;;;;;41.83;27.55;;;;;;;17.88;68.95;100374.45;1989380;89;30197;-71
2022/10/14 09:31:29;;;;;;;38.98;27.22;;;;;;;17.96;68.77;100376.08;1986995;89;27849;-72
2022/10/14 09:34:40;;;;;;;42.73;27.90;;;;;;;18.03;68.39;100381.90;1986224;89;28704;-71
2022/10/14 09:37:41;;;;;;;43.35;28.40;;;;;;;18.09;68.23;100380.54;1931120;90;31222;-70
2022/10/14 09:40:46;;;;;;;44.05;27.73;;;;;;;18.12;68.09;100380.30;1989103;89;33127;-70
2022/10/14 09:44:24;;;;;;;;;;;;;;;18.18;67.46;100376.59;1984531;89;29356;-69
2022/10/14 09:47:25;;;;;;;38.73;25.08;;;;;;;18.19;67.33;100368.83;1989522;89;28062;-71
2022/10/14 09:50:37;;;;;;;36.33;24.52;;;;;;;18.26;67.40;100361.57;1946621;89;28725;-69
2022/10/14 09:53:47;;;;;;;33.90;22.22;;;;;;;18.35;66.92;100363.05;1960632;89;31220;-70
2022/10/14 09:56:49;;;;;;;36.42;24.27;;;;;;;18.42;66.98;100358.45;1976641;88;33627;-72
2022/10/14 09:59:56;;;;;;;40.33;22.27;;;;;;;18.48;66.46;100360.16;1946226;89;29949;-72
2022/10/14 10:02:58;;;;;;;35.70;23.83;;;;;;;18.59;66.24;100363.36;2001381;86;27758;-74
2022/10/14 10:06:10;;;;;;;36.45;23.22;;;;;;;18.69;65.95;100366.17;2026022;86;28743;-73
2022/10/14 10:09:20;;;;;;;38.30;23.95;;;;;;;18.78;65.85;100359.11;2023959;85;57526;-72
2022/10/14 10:12:32;;;;;;;30.68;22.05;;;;;;;18.85;65.42;100360.82;2057980;86;33078;-73
2022/10/14 10:15:33;;;;;;;35.48;23.25;;;;;;;18.95;65.13;100356.36;2052859;86;29999;-70
2022/10/14 10:18:34;;;;;;;36.35;24.12;;;;;;;18.94;64.74;100350.56;2051573;86;27717;-70
2022/10/14 10:21:36;;;;;;;36.30;25.27;;;;;;;18.92;64.48;100343.04;2045964;86;30016;-72
2022/10/14 10:24:37;;;;;;;32.65;23.27;;;;;;;18.89;64.40;100343.29;2050907;86;32422;-72
2022/10/14 10:27:44;;;;;;;34.03;21.87;;;;;;;18.80;64.35;100340.34;2057295;86;33388;-68
2022/10/14 10:31:06;;;;;;;39.83;22.85;;;;;;;18.72;64.09;100336.07;2052879;85;30133;-72
2022/10/14 10:34:34;;;;;;;34.55;22.42;;;;;;;18.56;63.72;100325.61;2052716;85;28268;-74
2022/10/14 10:38:10;;;;;;;33.67;21.93;;;;;;;18.47;63.58;100330.46;2019028;86;28719;-73
2022/10/14 10:41:25;;;;;;;32.63;21.73;;;;;;;18.45;63.82;100329.21;2019606;86;31255;-75
2022/10/14 10:45:10;;;;;;;33.58;22.40;;;;;;;18.42;63.32;100328.61;2021050;87;33815;-74
2022/10/14 10:48:32;;;;;;;35.15;20.70;;;;;;;18.36;63.02;100323.20;2003238;88;30561;-65
2022/10/14 10:52:07;;;;;;;33.75;22.17;;;;;;;18.30;62.86;100325.94;2005745;88;27752;-63
2022/10/14 10:55:25;;;;;;;23.50;17.37;;;;;;;18.26;63.17;100323.09;1971430;89;30845;-71
2022/10/14 10:59:06;;;;;;;29.57;19.25;;;;;;;18.27;63.02;100325.33;1973098;89;31662;-74
2022/10/14 11:02:32;;;;;;;28.85;18.15;;;;;;;18.29;62.75;100313.36;2003234;88;32194;-68
2022/10/14 11:05:47;;;;;;;27.15;17.37;;;;;;;18.28;62.35;100311.63;1992987;88;29102;-70
2022/10/14 11:12:36;;;;;;;25.70;17.20;;;;;;;18.19;62.00;100302.41;1993074;87;28594;-73
2022/10/14 11:16:00;;;;;;;29.30;19.12;;;;;;;18.17;62.13;100297.59;2051636;86;31411;-73
2022/10/14 11:19:32;;;;;;;25.35;16.95;;;;;;;18.18;62.31;100300.67;2060054;85;32975;-66
2022/10/14 11:23:11;;;;;;;27.65;17.20;;;;;;;18.19;62.10;100294.77;2040220;85;30258;-73
2022/10/14 11:26:40;;;;;;;27.00;16.62;;;;;;;18.21;62.21;100298.19;2029991;86;27677;-65
2022/10/14 11:30:12;;;;;;;29.80;17.07;;;;;;;18.22;61.90;100291.78;2025091;86;29377;-66
2022/10/14 11:33:32;;;;;;;22.55;16.25;;;;;;;18.20;61.98;100296.50;2049488;85;31430;-68
2022/10/14 11:36:57;;;;;;;27.98;17.87;;;;;;;18.25;62.00;100294.77;2054777;85;33646;-68
2022/10/14 11:40:05;;;;;;;;;;;;;;;18.36;61.93;100286.11;2056933;86;30107;-72
2022/10/14 11:43:27;;;;;;;27.98;18.85;;;;;;;18.53;61.80;100286.56;2055554;85;27589;-68
2022/10/14 11:46:38;;;;;;;40.35;23.60;;;;;;;18.59;61.47;100286.02;2059563;86;28699;-73
2022/10/14 11:53:12;;;;;;;27.32;19.73;;;;;;;18.66;60.76;100278.23;1956168;89;34127;-71
2022/10/14 11:56:58;;;;;;;31.10;17.00;;;;;;;18.60;61.03;100279.61;1931447;90;29382;-73
2022/10/14 12:00:20;;;;;;;24.57;17.50;;;;;;;18.59;61.20;100279.75;1929171;91;27757;-69
2022/10/14 12:03:58;;;;;;;28.40;17.85;;;;;;;18.50;60.79;100277.31;1903408;91;28881;-65
2022/10/14 12:07:18;;;;;;;29.02;15.90;;;;;;;18.55;61.07;100268.78;1902080;92;31352;-73
2022/10/14 12:10:26;;;;;;;25.50;15.60;;;;;;;18.60;61.09;100263.84;1833135;95;33141;-65
2022/10/14 12:13:46;;;;;;;22.58;15.23;;;;;;;18.67;60.99;100261.84;1861580;94;29450;-64
2022/10/14 12:16:49;;;;;;;21.55;14.98;;;;;;;18.68;60.12;100262.20;1865142;93;27868;-62
2022/10/14 12:19:50;;;;;;;25.45;15.23;;;;;;;18.72;60.37;100259.20;1856933;94;28782;-67
2022/10/14 12:22:52;;;;;;;26.35;15.60;;;;;;;18.87;60.82;100255.18;1876391;93;30852;-65
2022/10/14 12:26:20;;;;;;;23.05;16.52;;;;;;;19.03;60.56;100257.48;1862543;92;34307;-64
2022/10/14 12:29:36;;;;;;;24.12;15.93;;;;;;;19.18;60.32;100253.08;1871659;93;29715;-63
2022/10/14 12:33:04;;;;;;;26.82;15.32;;;;;;;19.36;60.53;100250.63;1837168;95;28229;-66
2022/10/14 12:36:11;;;;;;;24.67;16.57;;;;;;;19.50;60.17;100251.63;1865143;94;29894;-62
2022/10/14 12:39:30;;;;;;;21.68;15.43;;;;;;;19.62;59.78;100245.58;1864801;95;32320;-63
2022/10/14 12:42:40;;;;;;;25.60;16.62;;;;;;;19.67;59.30;100248.75;1866645;93;32824;-66
2022/10/14 12:46:05;;;;;;;22.90;16.42;;;;;;;19.64;59.17;100240.02;1865790;95;29781;-65
2022/10/14 12:49:21;;;;;;;23.98;16.17;;;;;;;19.61;58.72;100245.73;1859069;93;27802;-65
2022/10/14 12:52:30;;;;;;;26.93;16.48;;;;;;;19.55;58.80;100242.55;1851516;93;29817;-68
2022/10/14 12:55:37;;;;;;;27.93;15.68;;;;;;;19.57;58.82;100234.28;1877329;90;31826;-65
2022/10/14 12:59:00;;;;;;;27.50;17.98;;;;;;;19.55;58.69;100230.31;1930406;89;33674;-65
2022/10/14 13:02:06;;;;;;;31.60;17.57;;;;;;;19.59;58.97;100238.56;1990020;87;30276;-63
2022/10/14 13:05:25;;;;;;;28.67;17.67;;;;;;;19.62;58.91;100226.55;1959533;87;27822;-69
2022/10/14 13:08:27;;;;;;;22.05;17.45;;;;;;;19.58;58.54;100230.05;2028752;85;29412;-66
2022/10/14 13:11:29;;;;;;;32.88;17.40;;;;;;;19.53;58.38;100228.75;2030195;86;31054;-65
2022/10/14 13:14:36;;;;;;;31.23;18.50;;;;;;;19.51;58.84;100223.46;2040781;85;34229;-70
2022/10/14 13:17:46;;;;;;;29.30;16.17;;;;;;;19.51;58.52;100216.67;2002353;86;29357;-67
2022/10/14 13:20:52;;;;;;;23.18;15.35;;;;;;;19.50;58.57;100221.73;2065744;83;27862;-70
2022/10/14 13:23:54;;;;;;;29.98;19.23;;;;;;;19.54;59.04;100218.23;2071120;85;28791;-63
2022/10/14 13:27:21;;;;;;;29.85;17.40;;;;;;;19.54;58.16;100212.30;2039523;86;30331;-70
2022/10/14 13:30:40;;;;;;;31.12;17.10;;;;;;;19.53;58.34;100213.28;2064631;84;34216;-66
2022/10/14 13:33:49;;;;;;;24.90;15.03;;;;;;;19.54;57.89;100206.86;2067400;84;29186;-64
2022/10/14 13:37:30;;;;;;;25.68;16.32;;;;;;;19.53;57.06;100202.93;2062256;84;27753;-68
2022/10/14 13:40:50;;;;;;;25.90;17.37;;;;;;;19.42;57.43;100200.69;2072335;84;28719;-66
2022/10/14 13:43:57;;;;;;;33.10;19.27;;;;;;;19.35;57.58;100201.36;2065980;85;31481;-67
2022/10/14 13:47:00;;;;;;;32.95;24.95;;;;;;;19.32;58.03;100204.34;2064033;85;34193;-71
2022/10/14 13:50:04;;;;;;;27.98;19.20;;;;;;;19.22;57.53;100202.42;2073677;84;29410;-71
2022/10/14 13:53:14;;;;;;;29.33;16.60;;;;;;;19.11;58.02;100197.08;2066781;84;27810;-70
2022/10/14 13:56:30;;;;;;;26.37;17.75;;;;;;;19.06;58.08;100196.61;1989463;87;28174;-71
2022/10/14 13:59:42;;;;;;;23.57;16.67;;;;;;;19.00;58.12;100195.81;1951029;89;31411;-71
2022/10/14 14:02:44;;;;;;;17.32;12.05;;;;;;;18.96;58.50;100201.50;1963575;90;33105;-70
2022/10/14 14:05:45;;;;;;;24.52;12.15;;;;;;;18.96;58.63;100197.43;1961516;90;30175;-70
2022/10/14 14:09:00;;;;;;;17.98;11.73;;;;;;;19.00;58.70;100201.24;1960539;89;27817;-69
2022/10/14 14:12:05;;;;;;;31.30;16.40;;;;;;;19.07;58.74;100199.22;1958745;90;28701;-71
2022/10/14 14:15:22;;;;;;;22.50;13.22;;;;;;;19.19;58.73;100198.64;1959614;90;31958;-68
2022/10/14 14:18:39;;;;;;;21.55;11.33;;;;;;;19.27;58.66;100193.89;1959262;90;34265;-69
2022/10/14 14:24:44;;;;;;;14.65;8.73;;;;;;;19.35;58.37;100197.29;1928001;89;27835;-63
2022/10/14 14:27:52;;;;;;;15.30;9.73;;;;;;;19.33;58.45;100200.64;1940958;91;28145;-71
2022/10/14 14:30:54;;;;;;;21.82;11.25;;;;;;;19.27;58.43;100200.17;1923314;91;31033;-70